Time;durP1;ratioP1;P1;durP2;ratioP2;P2;SDS_P1;SDS_P2;PMS_P1;PMS_P2;Temp;Humidity;BMP_temperature;BMP_pressure;BME280_temperature;BME280_humidity;BME280_pressure;Samples;Min_cycle;Max_cycle;Signal;HPM_P1;HPM_P2
2021/11/26 00:01:26;;;;;;;24.57;14.40;;;5.90;99.90;;;;;;5098040;28;20460;-67
2021/11/26 00:03:53;;;;;;;22.53;13.80;;;5.90;99.90;;;;;;5097790;28;20491;-66
2021/11/26 00:06:20;;;;;;;20.77;13.00;;;5.90;99.90;;;;;;5099599;28;20916;-66
2021/11/26 00:08:47;;;;;;;23.10;14.50;;;5.90;99.90;;;;;;5099774;28;20491;-66
2021/11/26 00:11:14;;;;;;;20.57;14.13;;;5.90;99.90;;;;;;5098234;28;20518;-65
2021/11/26 00:13:46;;;;;;;21.87;12.80;;;5.90;99.90;;;;;;5098601;28;20523;-66
2021/11/26 00:16:17;;;;;;;23.77;13.43;;;5.90;99.90;;;;;;5098164;28;20472;-65
2021/11/26 00:18:48;;;;;;;23.77;13.00;;;5.90;99.90;;;;;;5097853;28;20782;-65
2021/11/26 00:21:15;;;;;;;22.53;13.20;;;5.90;99.90;;;;;;5098252;28;20449;-65
2021/11/26 00:23:42;;;;;;;19.83;13.70;;;5.90;99.90;;;;;;5097190;28;20496;-66
2021/11/26 00:26:09;;;;;;;19.93;13.23;;;5.90;99.90;;;;;;5097867;28;20489;-66
2021/11/26 00:28:36;;;;;;;21.33;13.90;;;5.80;99.90;;;;;;5097232;28;20496;-65
2021/11/26 00:31:04;;;;;;;26.93;13.07;;;5.80;99.90;;;;;;5097220;28;20461;-66
2021/11/26 00:33:31;;;;;;;23.13;12.97;;;5.80;99.90;;;;;;5097526;28;20518;-65
2021/11/26 00:35:59;;;;;;;19.40;12.40;;;5.80;99.90;;;;;;5097726;28;20463;-65
2021/11/26 00:38:26;;;;;;;22.63;12.37;;;5.80;99.90;;;;;;5097544;28;20509;-65
2021/11/26 00:40:53;;;;;;;24.00;13.10;;;5.80;99.90;;;;;;5097724;28;20487;-66
2021/11/26 00:43:20;;;;;;;18.20;11.43;;;5.80;99.90;;;;;;5097678;28;20752;-66
2021/11/26 00:45:47;;;;;;;23.03;12.63;;;5.80;99.90;;;;;;5097434;28;20461;-66
2021/11/26 00:48:15;;;;;;;23.27;13.17;;;5.80;99.90;;;;;;5097623;28;20821;-66
2021/11/26 00:50:43;;;;;;;23.30;12.57;;;5.80;99.90;;;;;;5097222;28;20918;-66
2021/11/26 00:53:10;;;;;;;18.83;12.27;;;5.70;99.90;;;;;;5097019;28;20535;-65
2021/11/26 00:55:37;;;;;;;18.23;13.13;;;5.70;99.90;;;;;;5097021;28;20458;-65
2021/11/26 00:58:04;;;;;;;19.77;13.23;;;5.70;99.90;;;;;;5097116;28;20450;-66
2021/11/26 01:00:32;;;;;;;19.63;11.87;;;5.70;99.90;;;;;;5096956;28;20461;-66
2021/11/26 01:02:59;;;;;;;19.20;12.20;;;5.70;99.90;;;;;;5097424;28;20496;-65
2021/11/26 01:05:27;;;;;;;24.73;12.07;;;5.80;99.90;;;;;;5096079;28;20461;-65
2021/11/26 01:07:54;;;;;;;19.93;11.90;;;5.80;99.90;;;;;;5097290;28;20823;-65
2021/11/26 01:10:24;;;;;;;18.53;11.63;;;5.70;99.90;;;;;;5097218;28;20454;-66
2021/11/26 01:12:51;;;;;;;20.43;12.77;;;5.70;99.90;;;;;;5097027;28;20515;-66
2021/11/26 01:15:22;;;;;;;23.77;13.13;;;5.70;99.90;;;;;;5097394;28;20465;-66
2021/11/26 01:17:49;;;;;;;23.83;13.57;;;5.70;99.90;;;;;;5096702;28;20461;-66
2021/11/26 01:20:19;;;;;;;22.07;12.70;;;5.80;99.90;;;;;;5096882;28;20849;-66
2021/11/26 01:22:47;;;;;;;18.93;12.17;;;5.80;99.90;;;;;;5097286;28;20493;-66
2021/11/26 01:25:16;;;;;;;18.47;11.63;;;5.80;99.90;;;;;;5097538;28;20910;-66
2021/11/26 01:27:46;;;;;;;18.20;11.43;;;5.80;99.90;;;;;;5098187;28;20454;-66
2021/11/26 01:30:21;;;;;;;19.90;11.47;;;5.80;99.90;;;;;;5098687;28;20835;-67
2021/11/26 01:32:49;;;;;;;17.60;11.63;;;5.80;99.90;;;;;;5099054;28;20437;-66
2021/11/26 01:35:16;;;;;;;20.10;11.20;;;5.80;99.90;;;;;;5100150;28;20518;-66
2021/11/26 01:37:43;;;;;;;17.80;11.03;;;5.80;99.90;;;;;;5100255;28;20458;-66
2021/11/26 01:40:13;;;;;;;18.13;11.17;;;5.80;99.90;;;;;;5097620;28;20998;-66
2021/11/26 01:42:42;;;;;;;20.50;11.40;;;5.80;99.90;;;;;;5100092;28;20527;-66
2021/11/26 01:45:10;;;;;;;18.77;10.30;;;5.80;99.90;;;;;;5102523;28;20535;-67
2021/11/26 01:47:37;;;;;;;20.23;11.60;;;5.80;99.90;;;;;;5101273;28;20498;-66
2021/11/26 01:50:07;;;;;;;22.87;12.37;;;5.80;99.90;;;;;;5101103;28;20520;-67
2021/11/26 01:52:34;;;;;;;26.30;11.23;;;5.80;99.90;;;;;;5098788;28;20445;-66
2021/11/26 01:55:01;;;;;;;18.17;11.27;;;5.80;99.90;;;;;;5096423;28;20523;-67
2021/11/26 01:57:30;;;;;;;21.73;12.50;;;5.80;99.90;;;;;;5096000;28;20777;-67
2021/11/26 01:59:57;;;;;;;18.57;12.00;;;5.80;99.90;;;;;;5095819;28;20514;-67
2021/11/26 02:02:24;;;;;;;16.40;11.43;;;5.80;99.90;;;;;;5096132;28;20545;-66
2021/11/26 02:04:51;;;;;;;23.63;12.03;;;5.90;99.90;;;;;;5095776;28;20522;-66
2021/11/26 02:07:18;;;;;;;23.03;12.17;;;5.90;99.90;;;;;;5095781;28;20515;-69
2021/11/26 02:09:45;;;;;;;21.07;11.60;;;5.90;99.90;;;;;;5095820;28;20766;-67
2021/11/26 02:12:12;;;;;;;20.47;11.70;;;5.90;99.90;;;;;;5095381;28;20454;-66
2021/11/26 02:14:41;;;;;;;21.70;11.27;;;5.80;99.90;;;;;;5095436;28;20497;-66
2021/11/26 02:17:08;;;;;;;15.93;10.63;;;5.80;99.90;;;;;;5095004;28;20557;-67
2021/11/26 02:19:34;;;;;;;19.57;11.40;;;5.90;99.90;;;;;;5094976;28;20516;-67
2021/11/26 02:22:03;;;;;;;23.77;11.20;;;5.90;99.90;;;;;;5095157;28;20522;-66
2021/11/26 02:24:30;;;;;;;17.27;10.67;;;5.80;99.90;;;;;;5095398;28;20569;-67
2021/11/26 02:26:57;;;;;;;24.40;11.03;;;5.80;99.90;;;;;;5095356;28;20818;-67
2021/11/26 02:29:25;;;;;;;21.40;11.13;;;5.80;99.90;;;;;;5095559;28;20459;-66
2021/11/26 02:31:52;;;;;;;18.30;11.13;;;5.80;99.90;;;;;;5094731;28;20460;-67
2021/11/26 02:34:19;;;;;;;18.70;10.17;;;5.80;99.90;;;;;;5095498;28;20464;-68
2021/11/26 02:36:46;;;;;;;22.83;11.80;;;5.90;99.90;;;;;;5095429;28;20530;-67
2021/11/26 02:39:15;;;;;;;20.80;11.33;;;5.90;99.90;;;;;;5094635;28;20535;-67
2021/11/26 02:41:46;;;;;;;19.63;10.83;;;5.90;99.90;;;;;;5095207;28;20469;-66
2021/11/26 02:44:13;;;;;;;17.40;10.40;;;5.90;99.90;;;;;;5095220;28;20502;-68
2021/11/26 02:46:40;;;;;;;19.87;11.10;;;5.90;99.90;;;;;;5095127;28;20564;-66
2021/11/26 02:49:07;;;;;;;19.37;11.40;;;5.90;99.90;;;;;;5095415;28;20793;-66
2021/11/26 02:51:35;;;;;;;20.60;10.90;;;5.90;99.90;;;;;;5095749;28;20515;-66
2021/11/26 02:54:03;;;;;;;22.10;11.87;;;5.90;99.90;;;;;;5094925;28;20462;-66
2021/11/26 02:56:34;;;;;;;17.23;10.43;;;5.90;99.90;;;;;;5095373;28;20990;-66
2021/11/26 02:59:01;;;;;;;18.67;10.87;;;5.90;99.90;;;;;;5094816;28;20462;-66
2021/11/26 03:01:28;;;;;;;21.57;11.73;;;5.80;99.90;;;;;;5094721;28;20585;-66
2021/11/26 03:03:55;;;;;;;21.10;11.83;;;5.80;99.90;;;;;;5094534;28;20508;-67
2021/11/26 03:06:22;;;;;;;18.23;11.30;;;5.80;99.90;;;;;;5094694;28;20489;-66
2021/11/26 03:08:49;;;;;;;21.70;11.60;;;5.90;99.90;;;;;;5094577;28;20526;-66
2021/11/26 03:11:16;;;;;;;16.00;11.03;;;5.90;99.90;;;;;;5094610;28;20503;-67
2021/11/26 03:13:44;;;;;;;20.40;11.40;;;5.90;99.90;;;;;;5094569;28;20460;-66
2021/11/26 03:16:11;;;;;;;19.57;11.57;;;5.90;99.90;;;;;;5094735;28;20465;-67
2021/11/26 03:18:38;;;;;;;19.80;11.20;;;6.00;99.90;;;;;;5094814;28;20458;-67
2021/11/26 03:21:06;;;;;;;18.43;11.07;;;6.00;99.90;;;;;;5095489;28;20975;-66
2021/11/26 03:23:33;;;;;;;19.47;11.40;;;6.00;99.90;;;;;;5094244;28;20482;-67
2021/11/26 03:26:00;;;;;;;22.00;11.77;;;6.00;99.90;;;;;;5094825;28;20465;-67
2021/11/26 03:28:26;;;;;;;19.97;12.47;;;6.00;99.90;;;;;;5093608;28;20522;-66
2021/11/26 03:30:55;;;;;;;19.10;11.37;;;6.00;99.90;;;;;;5094718;28;20455;-66
2021/11/26 03:33:22;;;;;;;22.40;11.50;;;6.00;99.90;;;;;;5094504;28;20569;-68
2021/11/26 03:35:50;;;;;;;19.43;10.57;;;6.00;99.90;;;;;;5094472;28;20488;-67
2021/11/26 03:38:17;;;;;;;20.80;11.90;;;5.90;99.90;;;;;;5094220;28;20499;-66
2021/11/26 03:40:44;;;;;;;22.70;12.17;;;5.90;99.90;;;;;;5094181;28;20485;-66
2021/11/26 03:43:11;;;;;;;27.37;12.10;;;6.00;99.90;;;;;;5094631;28;20945;-67
2021/11/26 03:45:40;;;;;;;18.70;10.40;;;6.00;99.90;;;;;;5094314;28;20480;-67
2021/11/26 03:48:08;;;;;;;16.70;10.83;;;6.00;99.90;;;;;;5094502;28;20533;-66
2021/11/26 03:50:36;;;;;;;26.20;13.20;;;6.00;99.90;;;;;;5094437;28;20455;-66
2021/11/26 03:53:03;;;;;;;19.83;12.10;;;6.00;99.90;;;;;;5094415;28;20460;-66
2021/11/26 03:55:30;;;;;;;22.27;12.73;;;5.90;99.90;;;;;;5094414;28;20458;-66
2021/11/26 03:57:59;;;;;;;19.40;11.67;;;5.90;99.90;;;;;;5094089;28;20549;-67
2021/11/26 04:00:27;;;;;;;19.90;12.47;;;6.00;99.90;;;;;;5093829;28;20488;-66
2021/11/26 04:02:56;;;;;;;23.43;13.13;;;5.90;99.90;;;;;;5094223;28;20528;-66
2021/11/26 04:05:25;;;;;;;21.93;12.20;;;6.00;99.90;;;;;;5093962;28;20923;-66
2021/11/26 04:07:52;;;;;;;18.57;11.43;;;6.00;99.90;;;;;;5094025;28;20454;-67
2021/11/26 04:10:22;;;;;;;24.10;10.93;;;6.00;99.90;;;;;;5094001;28;20983;-67
2021/11/26 04:12:50;;;;;;;18.80;11.27;;;6.00;99.90;;;;;;5094168;28;20454;-67
2021/11/26 04:15:19;;;;;;;21.30;11.03;;;5.90;99.90;;;;;;5094250;28;20457;-68
2021/11/26 04:17:49;;;;;;;28.37;12.13;;;5.90;99.90;;;;;;5094107;28;20494;-66
2021/11/26 04:20:18;;;;;;;21.53;11.03;;;5.90;99.90;;;;;;5098421;28;20485;-66
2021/11/26 04:25:37;;;;;;;19.27;10.93;;;5.90;99.90;;;;;;5091238;28;20552;-67
2021/11/26 04:28:23;;;;;;;16.77;10.90;;;5.90;99.90;;;;;;5095584;28;20525;-69
2021/11/26 04:30:50;;;;;;;16.70;10.03;;;5.80;99.90;;;;;;5095317;28;20431;-66
2021/11/26 04:33:17;;;;;;;18.90;10.20;;;5.80;99.90;;;;;;5093464;28;20922;-66
2021/11/26 04:35:46;;;;;;;19.87;10.97;;;5.80;99.90;;;;;;5093615;28;20511;-66
2021/11/26 04:38:15;;;;;;;15.80;9.60;;;5.80;99.90;;;;;;5093504;28;20983;-68
2021/11/26 04:40:42;;;;;;;18.33;10.10;;;5.80;99.90;;;;;;5097444;28;20480;-66
2021/11/26 04:43:09;;;;;;;15.83;8.37;;;5.70;99.90;;;;;;5097575;28;20514;-66
2021/11/26 04:45:36;;;;;;;18.87;9.83;;;5.60;99.90;;;;;;5097469;28;20485;-67
2021/11/26 04:48:03;;;;;;;22.23;10.00;;;5.60;99.90;;;;;;5097543;28;20515;-66
2021/11/26 04:50:30;;;;;;;14.93;9.60;;;5.60;99.90;;;;;;5097318;28;20450;-67
2021/11/26 04:52:57;;;;;;;15.83;9.70;;;5.60;99.90;;;;;;5097513;28;20779;-68
2021/11/26 04:55:26;;;;;;;18.43;9.40;;;5.60;99.90;;;;;;5097068;28;20454;-67
2021/11/26 04:57:53;;;;;;;18.80;9.20;;;5.60;99.90;;;;;;5097108;28;20458;-67
2021/11/26 05:00:22;;;;;;;16.00;8.63;;;5.60;99.90;;;;;;5097117;28;20554;-65
2021/11/26 05:02:49;;;;;;;14.50;8.27;;;5.60;99.90;;;;;;5097163;28;20825;-66
2021/11/26 05:05:16;;;;;;;15.90;9.90;;;5.70;99.90;;;;;;5096847;28;20485;-67
2021/11/26 05:07:43;;;;;;;16.17;9.27;;;5.70;99.90;;;;;;5097233;28;20788;-65
2021/11/26 05:10:12;;;;;;;18.83;9.30;;;5.70;99.90;;;;;;5097158;28;20454;-66
2021/11/26 05:12:43;;;;;;;19.27;10.00;;;5.70;99.90;;;;;;5096802;28;20461;-66
2021/11/26 05:15:11;;;;;;;19.90;11.00;;;5.70;99.90;;;;;;5096854;28;20815;-66
2021/11/26 05:17:38;;;;;;;21.80;11.00;;;5.70;99.90;;;;;;5097125;28;20457;-66
2021/11/26 05:20:05;;;;;;;19.60;10.70;;;5.80;99.90;;;;;;5096555;28;20543;-66
2021/11/26 05:22:32;;;;;;;20.90;10.17;;;5.80;99.90;;;;;;5096332;28;20494;-66
2021/11/26 05:24:59;;;;;;;19.10;9.23;;;5.80;99.90;;;;;;5096791;28;20454;-66
2021/11/26 05:27:26;;;;;;;16.17;9.00;;;5.90;99.90;;;;;;5096715;28;20565;-67
2021/11/26 05:29:55;;;;;;;25.07;9.63;;;5.90;99.90;;;;;;5096871;28;20485;-66
2021/11/26 05:32:21;;;;;;;15.70;9.23;;;5.80;99.90;;;;;;5096710;28;20454;-66
2021/11/26 05:34:48;;;;;;;17.67;9.27;;;5.90;99.90;;;;;;5096692;28;20458;-66
2021/11/26 05:37:15;;;;;;;15.57;9.90;;;5.90;99.90;;;;;;5096563;28;20522;-66
2021/11/26 05:39:42;;;;;;;19.10;9.33;;;5.80;99.90;;;;;;5096981;28;20457;-66
2021/11/26 05:42:10;;;;;;;21.93;9.90;;;5.80;99.90;;;;;;5096778;28;20518;-66
2021/11/26 05:44:37;;;;;;;22.13;8.97;;;5.80;99.90;;;;;;5097083;28;20455;-65
2021/11/26 05:47:05;;;;;;;23.30;9.80;;;5.70;99.90;;;;;;5096807;28;20526;-66
2021/11/26 05:49:32;;;;;;;17.70;9.10;;;5.80;99.90;;;;;;5097416;28;20458;-66
2021/11/26 05:52:01;;;;;;;19.07;9.90;;;5.80;99.90;;;;;;5096094;28;20851;-66
2021/11/26 05:54:28;;;;;;;18.43;10.30;;;5.80;99.90;;;;;;5096376;28;20493;-66
2021/11/26 05:56:55;;;;;;;22.50;9.93;;;5.80;99.90;;;;;;5096439;28;20520;-66
2021/11/26 05:59:22;;;;;;;16.60;9.00;;;5.80;99.90;;;;;;5095934;28;20457;-67
2021/11/26 06:01:49;;;;;;;14.63;9.60;;;5.80;99.90;;;;;;5096398;28;20496;-66
2021/11/26 06:04:17;;;;;;;22.40;9.80;;;5.80;99.90;;;;;;5096082;28;20457;-67
2021/11/26 06:06:44;;;;;;;17.50;10.97;;;5.80;99.90;;;;;;5096092;28;20455;-66
2021/11/26 06:09:11;;;;;;;16.27;10.67;;;5.80;99.90;;;;;;5095843;28;20457;-67
2021/11/26 06:11:38;;;;;;;18.53;10.20;;;5.80;99.90;;;;;;5095913;28;20959;-67
2021/11/26 06:14:05;;;;;;;21.40;11.07;;;5.80;99.90;;;;;;5096089;28;20458;-66
2021/11/26 06:16:32;;;;;;;18.87;11.57;;;5.80;99.90;;;;;;5095877;28;20462;-66
2021/11/26 06:18:59;;;;;;;22.60;11.00;;;5.80;99.90;;;;;;5096051;28;20485;-66
2021/11/26 06:21:27;;;;;;;18.37;11.27;;;5.80;99.90;;;;;;5095517;28;20517;-66
2021/11/26 06:23:54;;;;;;;21.73;11.40;;;5.80;99.90;;;;;;5096151;28;20890;-66
2021/11/26 06:26:21;;;;;;;16.93;10.53;;;5.70;99.90;;;;;;5096033;28;20469;-67
2021/11/26 06:28:53;;;;;;;19.17;11.17;;;5.70;99.90;;;;;;5096307;28;20454;-67
2021/11/26 06:31:20;;;;;;;27.80;11.90;;;5.60;99.90;;;;;;5095494;28;20498;-66
2021/11/26 06:33:47;;;;;;;21.70;11.53;;;5.60;99.90;;;;;;5095949;28;20844;-67
2021/11/26 06:36:14;;;;;;;17.20;11.73;;;5.50;99.90;;;;;;5095265;28;20517;-67
2021/11/26 06:38:42;;;;;;;20.53;10.23;;;5.60;99.90;;;;;;5095360;28;20493;-66
2021/11/26 06:41:09;;;;;;;22.63;11.50;;;5.60;99.90;;;;;;5095591;28;20576;-67
2021/11/26 06:43:36;;;;;;;18.20;10.33;;;5.60;99.90;;;;;;5095542;28;20744;-67
2021/11/26 06:46:03;;;;;;;21.17;11.00;;;5.60;99.90;;;;;;5095453;28;20501;-67
2021/11/26 06:48:31;;;;;;;17.73;10.50;;;5.60;99.90;;;;;;5095406;28;20456;-66
2021/11/26 06:50:58;;;;;;;15.10;9.50;;;5.60;99.90;;;;;;5094997;28;20496;-65
2021/11/26 06:53:25;;;;;;;19.03;10.90;;;5.60;99.90;;;;;;5095514;28;20524;-66
2021/11/26 06:55:54;;;;;;;14.00;8.53;;;5.70;99.90;;;;;;5095837;28;20462;-66
2021/11/26 06:58:21;;;;;;;12.60;8.27;;;5.60;99.90;;;;;;5095854;28;20470;-68
2021/11/26 07:00:48;;;;;;;25.53;10.20;;;5.60;99.90;;;;;;5094837;28;20530;-68
2021/11/26 07:03:15;;;;;;;18.10;9.37;;;5.60;99.90;;;;;;5093770;28;20569;-67
2021/11/26 07:05:42;;;;;;;19.30;9.13;;;5.60;99.90;;;;;;5095079;28;20461;-67
2021/11/26 07:08:09;;;;;;;13.90;8.23;;;5.60;99.90;;;;;;5094845;28;20500;-67
2021/11/26 07:10:36;;;;;;;13.10;8.67;;;5.70;99.90;;;;;;5095318;28;20495;-67
2021/11/26 07:13:05;;;;;;;22.50;9.37;;;5.60;99.90;;;;;;5094965;28;20457;-67
2021/11/26 07:15:32;;;;;;;22.87;8.50;;;5.60;99.90;;;;;;5095234;28;20523;-67
2021/11/26 07:17:58;;;;;;;17.40;9.40;;;5.70;99.90;;;;;;5094879;28;20450;-67
2021/11/26 07:20:25;;;;;;;16.90;9.00;;;5.80;99.90;;;;;;5094572;28;20577;-67
2021/11/26 07:22:52;;;;;;;19.90;8.60;;;5.80;99.90;;;;;;5094436;28;20477;-68
2021/11/26 07:25:19;;;;;;;15.43;8.27;;;5.80;99.90;;;;;;5095045;28;20518;-67
2021/11/26 07:27:46;;;;;;;15.07;9.17;;;5.80;99.90;;;;;;5094445;28;20882;-68
2021/11/26 07:30:15;;;;;;;17.87;8.37;;;5.80;99.90;;;;;;5094315;28;20489;-66
2021/11/26 07:32:42;;;;;;;14.83;9.07;;;5.70;99.90;;;;;;5094282;28;20518;-67
2021/11/26 07:35:10;;;;;;;14.70;8.10;;;5.80;99.90;;;;;;5094679;28;20491;-66
2021/11/26 07:37:37;;;;;;;16.23;9.03;;;5.80;99.90;;;;;;5094603;28;20492;-66
2021/11/26 07:40:07;;;;;;;16.33;9.40;;;5.70;99.90;;;;;;5095241;28;20843;-67
2021/11/26 07:42:35;;;;;;;18.13;8.73;;;5.70;99.90;;;;;;5095412;28;20574;-67
2021/11/26 07:45:02;;;;;;;14.67;8.97;;;5.70;99.90;;;;;;5094042;28;20468;-67
2021/11/26 07:47:30;;;;;;;12.67;7.73;;;5.70;99.90;;;;;;5094325;28;20462;-66
2021/11/26 07:50:00;;;;;;;14.10;8.23;;;5.70;99.90;;;;;;5094256;28;20465;-66
2021/11/26 07:52:27;;;;;;;12.63;7.27;;;5.80;99.90;;;;;;5094257;28;20525;-66
2021/11/26 07:54:53;;;;;;;12.40;7.60;;;5.70;99.90;;;;;;5093905;28;20461;-67
2021/11/26 07:57:20;;;;;;;14.43;7.53;;;5.70;99.90;;;;;;5094096;28;20527;-67
2021/11/26 07:59:47;;;;;;;14.70;8.37;;;5.80;99.90;;;;;;5094187;28;20458;-67
2021/11/26 08:02:14;;;;;;;20.37;7.90;;;5.80;99.90;;;;;;5094229;28;20568;-68
2021/11/26 08:04:43;;;;;;;14.07;7.37;;;5.80;99.90;;;;;;5093961;28;20465;-71
2021/11/26 08:07:10;;;;;;;13.23;7.60;;;5.90;99.90;;;;;;5093907;28;20493;-67
2021/11/26 08:09:37;;;;;;;21.03;9.10;;;5.90;99.90;;;;;;5094107;28;20450;-67
2021/11/26 08:12:04;;;;;;;15.87;8.20;;;6.00;99.90;;;;;;5094266;28;20454;-67
2021/11/26 08:14:31;;;;;;;14.50;8.37;;;6.00;99.90;;;;;;5096354;28;20453;-67
2021/11/26 08:16:58;;;;;;;17.30;8.57;;;5.90;99.90;;;;;;5097736;28;20894;-67
2021/11/26 08:19:28;;;;;;;18.67;8.30;;;5.90;99.90;;;;;;5098012;28;20457;-67
2021/11/26 08:21:57;;;;;;;12.67;7.90;;;6.00;99.90;;;;;;5097746;28;20485;-67
2021/11/26 08:24:25;;;;;;;12.53;7.37;;;6.00;99.90;;;;;;5098285;28;20525;-68
2021/11/26 08:26:53;;;;;;;10.17;6.90;;;6.10;99.90;;;;;;5097718;28;20492;-67
2021/11/26 08:29:20;;;;;;;10.87;7.20;;;6.10;99.90;;;;;;5098256;28;20485;-66
2021/11/26 08:31:47;;;;;;;11.70;7.03;;;6.10;99.90;;;;;;5098186;28;20453;-67
2021/11/26 08:34:14;;;;;;;14.50;7.40;;;6.20;99.90;;;;;;5097829;28;20453;-67
2021/11/26 08:36:41;;;;;;;15.13;6.50;;;6.20;99.90;;;;;;5098040;28;20490;-67
2021/11/26 08:39:10;;;;;;;13.30;6.90;;;6.20;99.90;;;;;;5097936;28;20531;-68
2021/11/26 08:41:37;;;;;;;22.80;7.93;;;6.20;99.90;;;;;;5097648;28;20477;-66
2021/11/26 08:44:05;;;;;;;15.43;8.10;;;6.20;99.90;;;;;;5097297;28;20489;-67
2021/11/26 08:46:33;;;;;;;16.20;7.07;;;6.20;99.90;;;;;;5097468;28;20651;-67
2021/11/26 08:49:00;;;;;;;23.60;7.80;;;6.20;99.90;;;;;;5097268;28;20554;-67
2021/11/26 08:51:30;;;;;;;13.30;7.23;;;6.30;99.90;;;;;;5097655;28;20457;-67
2021/11/26 08:53:57;;;;;;;17.40;8.27;;;6.30;99.90;;;;;;5097939;28;20722;-67
2021/11/26 08:56:26;;;;;;;22.03;7.03;;;6.30;99.90;;;;;;5097629;28;20454;-66
2021/11/26 08:58:54;;;;;;;15.97;7.70;;;6.40;99.90;;;;;;5096877;28;20474;-66
2021/11/26 09:01:23;;;;;;;14.83;7.80;;;6.50;99.90;;;;;;5097595;28;20804;-67
2021/11/26 09:03:50;;;;;;;21.37;7.67;;;6.50;99.90;;;;;;5097200;28;20906;-66
2021/11/26 09:06:18;;;;;;;14.30;7.40;;;6.40;99.90;;;;;;5096805;28;20457;-67
2021/11/26 09:08:45;;;;;;;13.07;7.57;;;6.50;99.90;;;;;;5097337;28;20454;-67
2021/11/26 09:11:12;;;;;;;11.30;6.67;;;6.40;99.90;;;;;;5096842;28;20926;-66
2021/11/26 09:13:40;;;;;;;16.87;7.10;;;6.50;99.90;;;;;;5097347;28;20458;-66
2021/11/26 09:16:08;;;;;;;18.60;8.37;;;6.50;99.90;;;;;;5096833;28;20586;-66
2021/11/26 09:18:36;;;;;;;16.90;8.20;;;6.50;99.90;;;;;;5097653;28;20466;-67
2021/11/26 09:21:03;;;;;;;17.80;7.70;;;6.60;99.90;;;;;;5097394;28;20481;-67
2021/11/26 09:23:30;;;;;;;13.80;7.63;;;6.60;99.90;;;;;;5096708;28;20493;-67
2021/11/26 09:25:57;;;;;;;15.37;8.33;;;6.70;99.90;;;;;;5095966;28;20954;-67
2021/11/26 09:28:25;;;;;;;11.17;7.10;;;6.70;99.90;;;;;;5097075;28;20503;-67
2021/11/26 09:30:54;;;;;;;9.43;6.40;;;6.70;99.90;;;;;;5097050;28;20578;-67
2021/11/26 09:33:22;;;;;;;19.93;7.90;;;6.80;99.90;;;;;;5097097;28;20456;-66
2021/11/26 09:35:49;;;;;;;19.07;8.30;;;6.80;99.90;;;;;;5097676;28;20912;-67
2021/11/26 09:38:16;;;;;;;13.63;8.07;;;6.80;99.90;;;;;;5097450;28;20534;-67
2021/11/26 09:40:44;;;;;;;17.00;8.17;;;6.80;99.90;;;;;;5096815;28;20891;-66
2021/11/26 09:43:12;;;;;;;15.33;7.90;;;6.80;99.90;;;;;;5097113;28;20455;-67
2021/11/26 09:45:39;;;;;;;15.90;8.70;;;6.90;99.90;;;;;;5096956;28;20786;-67
2021/11/26 09:48:07;;;;;;;14.43;7.90;;;6.90;99.90;;;;;;5096678;28;20455;-67
2021/11/26 09:50:35;;;;;;;13.70;7.47;;;6.90;99.90;;;;;;5096343;28;20849;-67
2021/11/26 09:53:15;;;;;;;19.37;8.93;;;6.80;99.90;;;;;;5098903;28;20479;-67
2021/11/26 09:55:49;;;;;;;11.43;8.20;;;6.90;99.90;;;;;;5096160;28;20474;-66
2021/11/26 09:58:19;;;;;;;20.37;8.30;;;6.90;99.90;;;;;;5096364;28;20444;-68
2021/11/26 10:00:46;;;;;;;17.50;8.00;;;6.80;99.90;;;;;;5096055;28;20486;-67
2021/11/26 10:03:15;;;;;;;13.83;6.80;;;6.90;99.90;;;;;;5096122;28;20477;-67
2021/11/26 10:05:44;;;;;;;14.13;7.93;;;6.90;99.90;;;;;;5096259;28;20467;-67
2021/11/26 10:08:13;;;;;;;16.17;8.80;;;7.00;99.90;;;;;;5096027;28;20462;-66
2021/11/26 10:10:41;;;;;;;13.83;7.77;;;7.00;99.90;;;;;;5096047;28;20468;-66
2021/11/26 10:13:12;;;;;;;14.07;7.70;;;6.90;99.90;;;;;;5096248;28;20449;-67
2021/11/26 10:15:41;;;;;;;14.87;6.97;;;6.80;99.90;;;;;;5096005;28;20817;-67
2021/11/26 10:18:23;;;;;;;13.70;8.03;;;6.80;99.90;;;;;;5095467;28;20497;-67
2021/11/26 10:21:01;;;;;;;13.97;7.37;;;6.90;99.90;;;;;;5095898;28;20445;-67
2021/11/26 10:23:30;;;;;;;13.90;7.70;;;7.00;99.90;;;;;;5095504;28;20482;-67
2021/11/26 10:26:11;;;;;;;16.40;8.50;;;7.10;99.90;;;;;;5095451;28;20446;-67
2021/11/26 10:28:39;;;;;;;12.83;7.63;;;7.20;99.90;;;;;;5095847;28;20516;-67
2021/11/26 10:31:06;;;;;;;14.33;8.10;;;7.20;99.90;;;;;;5095497;28;20982;-67
2021/11/26 10:33:36;;;;;;;13.70;7.73;;;7.20;99.90;;;;;;5095758;28;20772;-67
2021/11/26 10:36:03;;;;;;;10.13;6.93;;;7.20;99.90;;;;;;5097009;28;20529;-66
2021/11/26 10:38:32;;;;;;;13.20;7.70;;;7.20;99.90;;;;;;5097082;28;20891;-67
2021/11/26 10:41:03;;;;;;;14.93;7.20;;;7.20;99.90;;;;;;5097334;28;20452;-67
2021/11/26 10:43:37;;;;;;;16.23;8.80;;;7.10;99.90;;;;;;5097779;28;20513;-66
2021/11/26 10:46:28;;;;;;;15.80;10.23;;;7.20;99.90;;;;;;5095492;28;20440;-67
2021/11/26 10:49:04;;;;;;;19.60;9.40;;;7.10;99.90;;;;;;5095189;28;20443;-68
2021/11/26 10:51:41;;;;;;;20.13;11.97;;;7.00;99.90;;;;;;5095363;28;20454;-69
2021/11/26 10:57:36;;;;;;;20.60;11.80;;;7.00;99.90;;;;;;5095167;28;20502;-68
2021/11/26 11:00:12;;;;;;;20.83;12.43;;;7.00;99.90;;;;;;5095309;28;20449;-70
2021/11/26 11:02:41;;;;;;;24.07;12.27;;;6.80;99.90;;;;;;5095295;28;20471;-69
2021/11/26 11:05:11;;;;;;;21.70;12.67;;;6.50;99.90;;;;;;5094637;28;20459;-69
2021/11/26 11:07:41;;;;;;;20.97;12.90;;;6.40;99.90;;;;;;5094930;28;20543;-68
2021/11/26 11:10:09;;;;;;;22.30;13.90;;;6.50;99.90;;;;;;5095598;28;20538;-68
2021/11/26 11:12:37;;;;;;;20.57;13.10;;;6.50;99.90;;;;;;5095229;28;20455;-69
2021/11/26 11:15:08;;;;;;;23.40;13.23;;;6.30;99.90;;;;;;5095598;28;20960;-68
2021/11/26 11:17:35;;;;;;;28.13;14.67;;;6.40;99.90;;;;;;5094579;28;20943;-69
2021/11/26 11:20:06;;;;;;;21.63;12.87;;;6.40;99.90;;;;;;5094751;28;20454;-68
2021/11/26 11:22:36;;;;;;;23.10;12.97;;;6.50;99.90;;;;;;5094754;28;20565;-68
2021/11/26 11:25:04;;;;;;;25.53;11.47;;;6.60;99.90;;;;;;5094801;28;20609;-69
2021/11/26 11:27:31;;;;;;;23.43;12.83;;;6.60;99.90;;;;;;5095161;28;20467;-69
2021/11/26 11:29:58;;;;;;;18.70;11.67;;;6.70;99.90;;;;;;5094854;28;20456;-70
2021/11/26 11:32:26;;;;;;;19.50;11.10;;;6.80;99.90;;;;;;5094716;28;20449;-68
2021/11/26 11:34:55;;;;;;;18.63;11.90;;;6.80;99.90;;;;;;5094454;28;20460;-69
2021/11/26 11:37:24;;;;;;;21.77;12.30;;;6.80;99.90;;;;;;5094738;28;20455;-69
2021/11/26 11:39:54;;;;;;;22.43;13.60;;;6.80;99.90;;;;;;5094366;28;20458;-69
2021/11/26 11:42:28;;;;;;;19.10;12.27;;;6.80;99.90;;;;;;5094727;28;20479;-68
2021/11/26 11:44:58;;;;;;;24.57;12.90;;;6.80;99.90;;;;;;5094622;28;20457;-68
2021/11/26 11:47:25;;;;;;;22.17;13.30;;;6.80;99.90;;;;;;5094701;28;20566;-68
2021/11/26 11:50:05;;;;;;;21.73;13.70;;;6.90;99.90;;;;;;5093927;28;20468;-68
2021/11/26 11:52:40;;;;;;;19.40;12.70;;;7.00;99.90;;;;;;5094947;28;20492;-68
2021/11/26 11:55:29;;;;;;;25.23;12.70;;;7.10;99.90;;;;;;5094566;28;20492;-68
2021/11/26 11:58:00;;;;;;;19.77;13.17;;;7.30;99.90;;;;;;5094791;28;20444;-68
2021/11/26 12:00:36;;;;;;;19.93;12.33;;;7.70;99.90;;;;;;5094917;28;20484;-68
2021/11/26 12:03:30;;;;;;;21.00;11.33;;;8.60;99.90;;;;;;5102582;28;20499;-66
2021/11/26 12:06:29;;;;;;;23.67;11.70;;;9.90;99.90;;;;;;5097788;28;20443;-67
2021/11/26 12:08:56;;;;;;;20.97;11.20;;;11.00;99.90;;;;;;5094094;28;20891;-67
2021/11/26 12:11:29;;;;;;;18.13;11.80;;;12.10;99.90;;;;;;5093923;28;20640;-67
2021/11/26 12:14:02;;;;;;;19.03;10.50;;;12.70;99.90;;;;;;5094756;28;20506;-67
2021/11/26 12:16:30;;;;;;;14.07;10.70;;;13.20;99.90;;;;;;5094731;28;20464;-67
2021/11/26 12:18:57;;;;;;;17.60;11.40;;;13.30;99.90;;;;;;5094153;28;20788;-66
2021/11/26 12:21:27;;;;;;;13.40;9.83;;;13.40;99.90;;;;;;5094114;28;20461;-66
2021/11/26 12:24:07;;;;;;;14.53;9.63;;;13.70;99.90;;;;;;5093650;28;20549;-67
2021/11/26 12:26:48;;;;;;;16.57;10.30;;;13.70;99.90;;;;;;5094278;28;20455;-68
2021/11/26 12:29:15;;;;;;;14.90;10.33;;;13.90;99.90;;;;;;5094427;28;20780;-66
2021/11/26 12:31:42;;;;;;;12.43;10.00;;;13.50;99.90;;;;;;5093861;28;20453;-67
2021/11/26 12:34:12;;;;;;;14.50;10.57;;;13.40;99.90;;;;;;5093736;28;20523;-67
2021/11/26 12:36:47;;;;;;;16.00;9.77;;;13.80;99.90;;;;;;5094146;28;20461;-67
2021/11/26 12:39:17;;;;;;;17.30;12.10;;;13.60;99.90;;;;;;5093766;28;20882;-67
2021/11/26 12:41:47;;;;;;;14.40;10.47;;;13.20;99.90;;;;;;5093650;28;20902;-67
2021/11/26 12:44:21;;;;;;;15.53;10.50;;;12.70;99.90;;;;;;5094252;28;20461;-66
2021/11/26 12:46:53;;;;;;;16.13;10.27;;;12.10;99.90;;;;;;5093865;28;20494;-67
2021/11/26 12:49:30;;;;;;;15.00;10.20;;;11.70;99.90;;;;;;5094163;28;20815;-67
2021/11/26 12:52:00;;;;;;;21.27;11.17;;;11.40;99.90;;;;;;5093536;28;20442;-67
2021/11/26 12:54:30;;;;;;;14.37;9.97;;;10.90;99.90;;;;;;5093544;28;20449;-67